Weather reports worldwide

Advertisment
Levens Hall, United Kingdom (99172): temperature & dewpoint: 18.06.2017 23:00:00 - 24.06.2017 23:00:00 (BST)Levens Hall, United Kingdom (99172): temperature 5cm: 18.06.2017 23:00:00 - 24.06.2017 23:00:00 (BST)Levens Hall, United Kingdom (99172): visibility: 18.06.2017 23:00:00 - 24.06.2017 23:00:00 (BST)Levens Hall, United Kingdom (99172): precipitation: 18.06.2017 23:00:00 - 24.06.2017 23:00:00 (BST)
Date & Time tt [°C] td [°C] tt 5cm [°C] vv [km] rr [mm]
24.06.2017 23:00:00 - - - - 0,0
24.06.2017 22:00:00 14,4 10,4 - - 0,0
24.06.2017 21:00:00 14,5 10,8 - - 0,0
24.06.2017 20:00:00 15,1 11,2 - - 0,0
24.06.2017 19:00:00 15,7 11,2 - - 0,0
24.06.2017 18:00:00 16,9 12,6 - - 0,0
24.06.2017 17:00:00 16,2 12,8 - - 0,0
24.06.2017 16:00:00 15,7 11,8 - - 0,0
24.06.2017 15:00:00 15,9 11,8 - - 0,0
24.06.2017 14:00:00 16,2 12,5 - - 0,0
24.06.2017 13:00:00 16,4 13,1 - - 0,0
24.06.2017 12:00:00 14,3 11,4 - - 0,0
24.06.2017 11:00:00 15,2 11,8 - - 0,0
24.06.2017 10:00:00 15,1 10,9 - - 0,0
24.06.2017 09:00:00 13,5 10,3 - - 0,0
24.06.2017 08:00:00 13,6 10,1 - - 0,0
24.06.2017 07:00:00 12,9 10,2 - - 0,0
24.06.2017 06:00:00 12,7 9,6 - - 0,0
24.06.2017 05:00:00 12,4 9,7 - - 0,0
24.06.2017 04:00:00 12,4 10,0 - - 0,0
24.06.2017 03:00:00 13,2 11,8 - - 0,0
24.06.2017 02:00:00 13,8 13,2 - - 0,0
24.06.2017 01:00:00 13,4 12,8 - - 0,2
24.06.2017 00:00:00 13,6 12,9 - - 0,2
23.06.2017 23:00:00 13,8 13,1 - - 0,2
23.06.2017 22:00:00 14,1 13,3 - 10 0,8
23.06.2017 21:00:00 15,1 14,6 - - 1,2
23.06.2017 20:00:00 16,0 14,5 - - 0,0
23.06.2017 19:00:00 16,2 14,7 - - 0,0
23.06.2017 18:00:00 16,2 14,6 - - 0,0
23.06.2017 17:00:00 15,9 14,5 - - 0,0
23.06.2017 16:00:00 16,0 14,3 - - 0,0
23.06.2017 15:00:00 16,2 13,9 - - 0,0
23.06.2017 14:00:00 15,8 13,7 - - 0,0
23.06.2017 13:00:00 15,4 13,5 - - 0,0
23.06.2017 12:00:00 15,1 13,5 - - 0,0
23.06.2017 11:00:00 14,9 13,4 - - 0,0
23.06.2017 10:00:00 14,5 13,5 - - 0,2
23.06.2017 09:00:00 14,1 13,3 - - 1,8
23.06.2017 08:00:00 13,8 13,2 - - 4,4
23.06.2017 07:00:00 13,9 13,2 - - 3,4
23.06.2017 06:00:00 14,4 13,3 - - 0,0
23.06.2017 05:00:00 15,2 13,4 - - 0,0
23.06.2017 04:00:00 14,3 12,5 - - 0,0
23.06.2017 03:00:00 14,3 12,6 - - 0,0
23.06.2017 02:00:00 14,3 12,9 - - 0,0
23.06.2017 01:00:00 14,4 12,9 - - 0,0
23.06.2017 00:00:00 13,5 11,7 - - 0,0
22.06.2017 23:00:00 13,4 11,0 - - 0,0
22.06.2017 22:00:00 13,9 10,8 - - 0,0
22.06.2017 21:00:00 14,0 11,2 - - 0,0
22.06.2017 20:00:00 14,8 10,3 - - 0,0
22.06.2017 19:00:00 15,7 10,0 - - 0,0
22.06.2017 18:00:00 17,8 11,1 - - 0,0
22.06.2017 17:00:00 17,7 9,9 - - 0,0
22.06.2017 16:00:00 17,7 10,3 - - 0,0
22.06.2017 15:00:00 17,0 11,6 - - 0,0
22.06.2017 14:00:00 17,0 12,6 - - 0,0
22.06.2017 13:00:00 16,6 12,6 - - 0,0
22.06.2017 12:00:00 17,2 13,7 - - 0,0
22.06.2017 11:00:00 17,3 14,3 - - 0,0
22.06.2017 10:00:00 16,1 15,0 - - 0,0
22.06.2017 09:00:00 15,8 15,1 - - 0,0
22.06.2017 08:00:00 15,5 15,1 - - 0,0
22.06.2017 07:00:00 15,4 15,1 - - 0,0
22.06.2017 06:00:00 15,1 14,9 - - 0,0
22.06.2017 05:00:00 15,2 14,9 - - 0,0
22.06.2017 04:00:00 15,1 14,8 - - 0,0
22.06.2017 03:00:00 14,9 14,5 - - 0,0
22.06.2017 02:00:00 17,2 16,0 - - 0,0
22.06.2017 01:00:00 17,1 16,1 - - 0,0
22.06.2017 00:00:00 18,2 16,8 - - 0,0
21.06.2017 23:00:00 19,6 18,5 - - 0,2
21.06.2017 22:00:00 20,7 18,7 - - 0,2
21.06.2017 21:00:00 21,8 18,4 - - 0,0
21.06.2017 20:00:00 23,7 17,6 - - 0,0
21.06.2017 19:00:00 25,7 20,7 - - 0,0
21.06.2017 18:00:00 25,4 20,4 - - 0,0
21.06.2017 17:00:00 25,5 19,4 - - 0,0
21.06.2017 16:00:00 25,2 18,8 - - 0,0
21.06.2017 15:00:00 24,0 19,1 - - 0,0
21.06.2017 14:00:00 22,0 17,5 - - 0,0
21.06.2017 13:00:00 21,4 17,8 - - 0,0
21.06.2017 12:00:00 19,3 16,0 - - 0,4
21.06.2017 11:00:00 19,0 16,5 - - 0,0
21.06.2017 10:00:00 17,8 15,8 17,8 - 0,0
21.06.2017 09:00:00 15,9 14,2 - - 4,6
21.06.2017 08:00:00 17,1 13,7 - - 0,0
21.06.2017 07:00:00 16,4 13,0 - - 0,0
21.06.2017 06:00:00 16,0 12,7 - - 0,0
21.06.2017 05:00:00 15,7 12,3 - - 0,0
21.06.2017 04:00:00 15,6 12,6 - - 0,0
21.06.2017 03:00:00 15,6 12,5 - - 0,0
21.06.2017 02:00:00 15,1 12,4 - - 0,0
21.06.2017 01:00:00 14,8 12,5 - - 0,0
21.06.2017 00:00:00 15,0 12,8 - - 0,0
20.06.2017 23:00:00 15,5 12,7 - - 0,0
20.06.2017 22:00:00 16,8 13,3 - - 0,0
20.06.2017 21:00:00 18,1 14,0 - - 0,0
20.06.2017 20:00:00 19,3 14,3 - - 0,0
20.06.2017 19:00:00 21,2 15,4 - - 0,0
20.06.2017 18:00:00 21,6 15,4 - - 0,0
20.06.2017 17:00:00 22,9 15,6 - - 0,0
20.06.2017 16:00:00 22,8 15,8 - - 0,0
20.06.2017 15:00:00 22,5 15,8 - - 0,0
20.06.2017 14:00:00 21,4 15,1 - - 0,0
20.06.2017 13:00:00 22,1 14,9 - - 0,0
20.06.2017 12:00:00 20,8 14,8 - - 0,0
20.06.2017 11:00:00 19,5 14,7 - - 0,0
20.06.2017 10:00:00 20,0 14,6 20,5 - 0,0
20.06.2017 09:00:00 19,6 14,6 - - 0,0
20.06.2017 08:00:00 17,8 14,1 - - 0,0
20.06.2017 07:00:00 16,4 13,9 - - 0,0
20.06.2017 06:00:00 14,1 13,0 - - 0,0
20.06.2017 05:00:00 13,3 12,6 - - 0,0
20.06.2017 04:00:00 13,6 12,6 - - 0,0
20.06.2017 03:00:00 13,8 12,5 - - 0,0
20.06.2017 02:00:00 14,5 12,8 - - 0,0
20.06.2017 01:00:00 15,7 14,1 - - 0,0
20.06.2017 00:00:00 16,4 14,2 - - 0,0
19.06.2017 23:00:00 17,6 15,0 - - 0,0
19.06.2017 22:00:00 20,0 15,6 - - 0,0
19.06.2017 21:00:00 22,3 15,2 - - 0,0
19.06.2017 20:00:00 23,9 15,7 - - 0,0
19.06.2017 19:00:00 25,0 16,3 - - 0,0
19.06.2017 18:00:00 25,1 16,9 - - 0,0
19.06.2017 17:00:00 26,0 15,9 - - 0,0
19.06.2017 16:00:00 26,1 15,1 - - 0,0
19.06.2017 15:00:00 25,8 17,2 - - 0,0
19.06.2017 14:00:00 25,9 17,2 - - 0,0
19.06.2017 13:00:00 25,3 17,2 - - 0,0
19.06.2017 12:00:00 24,5 15,2 - - 0,0
19.06.2017 11:00:00 23,3 13,7 - - 0,0
19.06.2017 10:00:00 21,0 12,8 21,3 - 0,0
19.06.2017 09:00:00 19,2 13,4 - - 0,0
19.06.2017 08:00:00 16,1 12,8 - - 0,0
19.06.2017 07:00:00 14,1 12,3 - - 0,0
19.06.2017 06:00:00 11,6 10,9 - - 0,0
19.06.2017 05:00:00 11,3 10,5 - - 0,0
19.06.2017 04:00:00 11,5 10,7 - - 0,0
19.06.2017 03:00:00 11,9 11,1 - - 0,0
19.06.2017 02:00:00 12,4 11,2 - - 0,0
19.06.2017 01:00:00 12,8 11,6 - - 0,0
19.06.2017 00:00:00 13,8 12,2 - - 0,0
18.06.2017 23:00:00 14,9 12,5 - - 0,0

tt = temperature
td = dewpoint
tt 5cm = temperature 5cm
vv = visibility
rr = precipitation

Next stations